sensor_id;sensor_type;location;lat;lon;timestamp;temperature;humidity
16517;DHT22;8371;52.272;9.746;2023-08-07T00:01:54;17.50;76.30
16517;DHT22;8371;52.272;9.746;2023-08-07T00:04:19;17.50;76.30
16517;DHT22;8371;52.272;9.746;2023-08-07T00:06:45;17.60;76.70
16517;DHT22;8371;52.272;9.746;2023-08-07T00:09:11;17.60;76.80
16517;DHT22;8371;52.272;9.746;2023-08-07T00:11:36;17.60;76.50
16517;DHT22;8371;52.272;9.746;2023-08-07T00:14:02;17.70;77.30
16517;DHT22;8371;52.272;9.746;2023-08-07T00:16:28;17.60;76.60
16517;DHT22;8371;52.272;9.746;2023-08-07T00:18:54;17.70;76.50
16517;DHT22;8371;52.272;9.746;2023-08-07T00:21:23;17.70;76.40
16517;DHT22;8371;52.272;9.746;2023-08-07T00:23:49;17.70;76.30
16517;DHT22;8371;52.272;9.746;2023-08-07T00:26:15;17.70;76.40
16517;DHT22;8371;52.272;9.746;2023-08-07T00:28:41;17.80;76.50
16517;DHT22;8371;52.272;9.746;2023-08-07T00:31:07;17.80;76.70
16517;DHT22;8371;52.272;9.746;2023-08-07T00:33:33;17.80;76.60
16517;DHT22;8371;52.272;9.746;2023-08-07T00:35:58;17.80;76.70
16517;DHT22;8371;52.272;9.746;2023-08-07T00:38:24;17.80;76.60
16517;DHT22;8371;52.272;9.746;2023-08-07T00:40:50;17.70;76.70
16517;DHT22;8371;52.272;9.746;2023-08-07T00:43:15;17.70;76.60
16517;DHT22;8371;52.272;9.746;2023-08-07T00:45:43;17.80;77.50
16517;DHT22;8371;52.272;9.746;2023-08-07T00:48:09;17.70;76.60
16517;DHT22;8371;52.272;9.746;2023-08-07T00:50:36;17.80;77.00
16517;DHT22;8371;52.272;9.746;2023-08-07T00:53:02;17.80;77.20
16517;DHT22;8371;52.272;9.746;2023-08-07T00:55:28;17.70;77.20
16517;DHT22;8371;52.272;9.746;2023-08-07T00:57:54;17.70;77.30
16517;DHT22;8371;52.272;9.746;2023-08-07T01:00:20;17.80;77.10
16517;DHT22;8371;52.272;9.746;2023-08-07T01:02:47;17.90;77.60
16517;DHT22;8371;52.272;9.746;2023-08-07T01:05:15;17.80;77.70
16517;DHT22;8371;52.272;9.746;2023-08-07T01:07:41;17.70;77.50
16517;DHT22;8371;52.272;9.746;2023-08-07T01:10:07;17.80;77.40
16517;DHT22;8371;52.272;9.746;2023-08-07T01:12:36;17.70;77.10
16517;DHT22;8371;52.272;9.746;2023-08-07T01:15:14;17.80;77.30
16517;DHT22;8371;52.272;9.746;2023-08-07T01:17:42;17.80;77.20
16517;DHT22;8371;52.272;9.746;2023-08-07T01:20:09;17.80;77.20
16517;DHT22;8371;52.272;9.746;2023-08-07T01:22:35;17.80;78.00
16517;DHT22;8371;52.272;9.746;2023-08-07T01:25:01;17.80;77.50
16517;DHT22;8371;52.272;9.746;2023-08-07T01:27:37;17.80;77.60
16517;DHT22;8371;52.272;9.746;2023-08-07T01:30:36;17.80;77.50
16517;DHT22;8371;52.272;9.746;2023-08-07T01:33:17;17.80;78.50
16517;DHT22;8371;52.272;9.746;2023-08-07T01:35:45;17.80;77.70
16517;DHT22;8371;52.272;9.746;2023-08-07T01:38:12;17.70;77.60
16517;DHT22;8371;52.272;9.746;2023-08-07T01:40:39;17.70;77.50
16517;DHT22;8371;52.272;9.746;2023-08-07T01:43:05;17.70;77.80
16517;DHT22;8371;52.272;9.746;2023-08-07T01:45:31;17.70;77.80
16517;DHT22;8371;52.272;9.746;2023-08-07T01:47:56;17.70;77.80
16517;DHT22;8371;52.272;9.746;2023-08-07T01:50:23;17.70;77.90
16517;DHT22;8371;52.272;9.746;2023-08-07T01:52:50;17.60;78.00
16517;DHT22;8371;52.272;9.746;2023-08-07T01:55:17;17.60;78.00
16517;DHT22;8371;52.272;9.746;2023-08-07T01:57:43;17.60;77.90
16517;DHT22;8371;52.272;9.746;2023-08-07T02:00:10;17.60;78.00
16517;DHT22;8371;52.272;9.746;2023-08-07T02:02:36;17.60;78.00
16517;DHT22;8371;52.272;9.746;2023-08-07T02:05:03;17.60;78.00
16517;DHT22;8371;52.272;9.746;2023-08-07T02:07:29;17.60;77.90
16517;DHT22;8371;52.272;9.746;2023-08-07T02:09:55;17.60;78.00
16517;DHT22;8371;52.272;9.746;2023-08-07T02:12:21;17.60;78.20
16517;DHT22;8371;52.272;9.746;2023-08-07T02:14:47;17.60;78.20
16517;DHT22;8371;52.272;9.746;2023-08-07T02:17:12;17.60;78.30
16517;DHT22;8371;52.272;9.746;2023-08-07T02:19:38;17.60;78.10
16517;DHT22;8371;52.272;9.746;2023-08-07T02:22:04;17.60;79.00
16517;DHT22;8371;52.272;9.746;2023-08-07T02:24:29;17.50;78.10
16517;DHT22;8371;52.272;9.746;2023-08-07T02:26:55;17.50;78.20
16517;DHT22;8371;52.272;9.746;2023-08-07T02:29:21;17.50;78.30
16517;DHT22;8371;52.272;9.746;2023-08-07T02:31:46;17.50;78.90
16517;DHT22;8371;52.272;9.746;2023-08-07T02:34:12;17.40;78.00
16517;DHT22;8371;52.272;9.746;2023-08-07T02:36:38;17.40;78.30
16517;DHT22;8371;52.272;9.746;2023-08-07T02:39:04;17.40;78.10
16517;DHT22;8371;52.272;9.746;2023-08-07T02:41:29;17.30;78.40
16517;DHT22;8371;52.272;9.746;2023-08-07T02:43:57;17.30;78.30
16517;DHT22;8371;52.272;9.746;2023-08-07T02:46:23;17.30;78.60
16517;DHT22;8371;52.272;9.746;2023-08-07T02:48:48;17.20;78.50
16517;DHT22;8371;52.272;9.746;2023-08-07T02:51:14;17.20;78.50
16517;DHT22;8371;52.272;9.746;2023-08-07T02:53:40;17.20;78.50
16517;DHT22;8371;52.272;9.746;2023-08-07T02:56:05;17.10;78.50
16517;DHT22;8371;52.272;9.746;2023-08-07T02:58:31;17.10;78.60
16517;DHT22;8371;52.272;9.746;2023-08-07T03:01:03;17.00;78.60
16517;DHT22;8371;52.272;9.746;2023-08-07T03:03:29;17.00;78.70
16517;DHT22;8371;52.272;9.746;2023-08-07T03:05:54;17.00;78.80
16517;DHT22;8371;52.272;9.746;2023-08-07T03:08:20;17.00;78.90
16517;DHT22;8371;52.272;9.746;2023-08-07T03:10:53;16.90;79.30
16517;DHT22;8371;52.272;9.746;2023-08-07T03:13:19;16.90;79.10
16517;DHT22;8371;52.272;9.746;2023-08-07T03:15:45;16.90;79.00
16517;DHT22;8371;52.272;9.746;2023-08-07T03:18:10;16.80;79.20
16517;DHT22;8371;52.272;9.746;2023-08-07T03:20:37;16.80;79.90
16517;DHT22;8371;52.272;9.746;2023-08-07T03:23:03;16.80;79.80
16517;DHT22;8371;52.272;9.746;2023-08-07T03:25:28;16.80;80.10
16517;DHT22;8371;52.272;9.746;2023-08-07T03:27:54;16.80;80.30
16517;DHT22;8371;52.272;9.746;2023-08-07T03:30:20;16.90;80.90
16517;DHT22;8371;52.272;9.746;2023-08-07T03:32:46;16.90;80.20
16517;DHT22;8371;52.272;9.746;2023-08-07T03:35:11;16.90;80.20
16517;DHT22;8371;52.272;9.746;2023-08-07T03:37:37;16.90;80.20
16517;DHT22;8371;52.272;9.746;2023-08-07T03:40:03;17.00;80.70
16517;DHT22;8371;52.272;9.746;2023-08-07T03:42:29;17.00;80.30
16517;DHT22;8371;52.272;9.746;2023-08-07T03:44:54;17.00;80.60
16517;DHT22;8371;52.272;9.746;2023-08-07T03:47:20;17.00;80.40
16517;DHT22;8371;52.272;9.746;2023-08-07T03:49:46;17.10;80.30
16517;DHT22;8371;52.272;9.746;2023-08-07T03:52:11;17.10;80.80
16517;DHT22;8371;52.272;9.746;2023-08-07T03:54:37;17.10;80.50
16517;DHT22;8371;52.272;9.746;2023-08-07T03:57:03;17.10;80.40
16517;DHT22;8371;52.272;9.746;2023-08-07T03:59:29;17.20;80.50
16517;DHT22;8371;52.272;9.746;2023-08-07T04:01:55;17.10;80.40
16517;DHT22;8371;52.272;9.746;2023-08-07T04:04:20;17.20;80.80
16517;DHT22;8371;52.272;9.746;2023-08-07T04:06:46;17.20;80.80
16517;DHT22;8371;52.272;9.746;2023-08-07T04:09:11;17.20;80.70
16517;DHT22;8371;52.272;9.746;2023-08-07T04:11:37;17.20;80.70
16517;DHT22;8371;52.272;9.746;2023-08-07T04:14:03;17.30;81.50
16517;DHT22;8371;52.272;9.746;2023-08-07T04:16:30;17.30;80.60
16517;DHT22;8371;52.272;9.746;2023-08-07T04:18:56;17.30;80.60
16517;DHT22;8371;52.272;9.746;2023-08-07T04:21:22;17.30;80.40
16517;DHT22;8371;52.272;9.746;2023-08-07T04:23:48;17.30;80.40
16517;DHT22;8371;52.272;9.746;2023-08-07T04:26:14;17.30;80.30
16517;DHT22;8371;52.272;9.746;2023-08-07T04:28:40;17.30;80.40
16517;DHT22;8371;52.272;9.746;2023-08-07T04:31:06;17.40;80.50
16517;DHT22;8371;52.272;9.746;2023-08-07T04:33:32;17.30;80.50
16517;DHT22;8371;52.272;9.746;2023-08-07T04:35:57;17.40;80.50
16517;DHT22;8371;52.272;9.746;2023-08-07T04:38:23;17.40;80.70
16517;DHT22;8371;52.272;9.746;2023-08-07T04:40:49;17.40;80.00
16517;DHT22;8371;52.272;9.746;2023-08-07T04:43:17;17.40;81.00
16517;DHT22;8371;52.272;9.746;2023-08-07T04:45:43;17.40;81.00
16517;DHT22;8371;52.272;9.746;2023-08-07T04:48:10;17.40;81.00
16517;DHT22;8371;52.272;9.746;2023-08-07T04:50:38;17.50;80.80
16517;DHT22;8371;52.272;9.746;2023-08-07T04:53:04;17.50;81.00
16517;DHT22;8371;52.272;9.746;2023-08-07T04:55:30;17.50;81.00
16517;DHT22;8371;52.272;9.746;2023-08-07T04:57:57;17.50;81.20
16517;DHT22;8371;52.272;9.746;2023-08-07T05:00:23;17.60;81.20
16517;DHT22;8371;52.272;9.746;2023-08-07T05:02:49;17.60;81.20
16517;DHT22;8371;52.272;9.746;2023-08-07T05:05:15;17.60;81.20
16517;DHT22;8371;52.272;9.746;2023-08-07T05:07:41;17.60;81.10
16517;DHT22;8371;52.272;9.746;2023-08-07T05:10:09;17.70;81.00
16517;DHT22;8371;52.272;9.746;2023-08-07T05:12:35;17.70;80.90
16517;DHT22;8371;52.272;9.746;2023-08-07T05:15:01;17.70;80.80
16517;DHT22;8371;52.272;9.746;2023-08-07T05:17:26;17.70;80.90
16517;DHT22;8371;52.272;9.746;2023-08-07T05:19:52;17.70;80.90
16517;DHT22;8371;52.272;9.746;2023-08-07T05:22:18;17.80;81.00
16517;DHT22;8371;52.272;9.746;2023-08-07T05:24:44;17.80;81.10
16517;DHT22;8371;52.272;9.746;2023-08-07T05:27:11;17.80;81.00
16517;DHT22;8371;52.272;9.746;2023-08-07T05:29:37;17.90;81.10
16517;DHT22;8371;52.272;9.746;2023-08-07T05:32:10;17.80;81.20
16517;DHT22;8371;52.272;9.746;2023-08-07T05:34:36;17.90;81.10
16517;DHT22;8371;52.272;9.746;2023-08-07T05:37:01;17.90;81.20
16517;DHT22;8371;52.272;9.746;2023-08-07T05:39:27;18.00;81.40
16517;DHT22;8371;52.272;9.746;2023-08-07T05:41:53;18.00;81.10
16517;DHT22;8371;52.272;9.746;2023-08-07T05:44:20;18.10;81.10
16517;DHT22;8371;52.272;9.746;2023-08-07T05:46:46;18.10;81.00
16517;DHT22;8371;52.272;9.746;2023-08-07T05:49:11;18.10;81.10
16517;DHT22;8371;52.272;9.746;2023-08-07T05:51:37;18.10;80.80
16517;DHT22;8371;52.272;9.746;2023-08-07T05:54:03;18.20;80.80
16517;DHT22;8371;52.272;9.746;2023-08-07T05:56:28;18.30;80.90
16517;DHT22;8371;52.272;9.746;2023-08-07T05:58:54;18.30;81.30
16517;DHT22;8371;52.272;9.746;2023-08-07T06:01:20;18.30;80.90
16517;DHT22;8371;52.272;9.746;2023-08-07T06:03:45;18.40;81.10
16517;DHT22;8371;52.272;9.746;2023-08-07T06:06:12;18.40;81.10
16517;DHT22;8371;52.272;9.746;2023-08-07T06:08:38;18.40;80.80
16517;DHT22;8371;52.272;9.746;2023-08-07T06:11:03;18.50;80.80
16517;DHT22;8371;52.272;9.746;2023-08-07T06:13:30;18.50;80.80
16517;DHT22;8371;52.272;9.746;2023-08-07T06:15:56;18.60;81.40
16517;DHT22;8371;52.272;9.746;2023-08-07T06:18:22;18.60;80.80
16517;DHT22;8371;52.272;9.746;2023-08-07T06:20:47;18.60;80.60
16517;DHT22;8371;52.272;9.746;2023-08-07T06:23:13;18.70;80.60
16517;DHT22;8371;52.272;9.746;2023-08-07T06:25:39;18.70;80.60
16517;DHT22;8371;52.272;9.746;2023-08-07T06:28:04;18.70;80.60
16517;DHT22;8371;52.272;9.746;2023-08-07T06:30:31;18.80;80.80
16517;DHT22;8371;52.272;9.746;2023-08-07T06:32:56;18.90;81.10
16517;DHT22;8371;52.272;9.746;2023-08-07T06:35:22;19.00;81.10
16517;DHT22;8371;52.272;9.746;2023-08-07T06:37:48;19.10;81.00
16517;DHT22;8371;52.272;9.746;2023-08-07T06:40:14;19.20;80.60
16517;DHT22;8371;52.272;9.746;2023-08-07T06:42:39;19.20;80.40
16517;DHT22;8371;52.272;9.746;2023-08-07T06:45:07;19.30;80.30
16517;DHT22;8371;52.272;9.746;2023-08-07T06:47:33;19.40;80.00
16517;DHT22;8371;52.272;9.746;2023-08-07T06:49:59;19.40;79.60
16517;DHT22;8371;52.272;9.746;2023-08-07T06:52:24;19.50;79.40
16517;DHT22;8371;52.272;9.746;2023-08-07T06:54:50;19.50;79.30
16517;DHT22;8371;52.272;9.746;2023-08-07T06:57:16;19.60;79.20
16517;DHT22;8371;52.272;9.746;2023-08-07T06:59:41;19.60;79.00
16517;DHT22;8371;52.272;9.746;2023-08-07T07:02:07;19.60;78.80
16517;DHT22;8371;52.272;9.746;2023-08-07T07:04:33;19.60;78.60
16517;DHT22;8371;52.272;9.746;2023-08-07T07:06:59;19.60;78.60
16517;DHT22;8371;52.272;9.746;2023-08-07T07:09:24;19.60;78.50
16517;DHT22;8371;52.272;9.746;2023-08-07T07:11:50;19.60;78.60
16517;DHT22;8371;52.272;9.746;2023-08-07T07:14:16;19.60;78.50
16517;DHT22;8371;52.272;9.746;2023-08-07T07:16:42;19.60;78.50
16517;DHT22;8371;52.272;9.746;2023-08-07T07:19:08;19.60;78.60
16517;DHT22;8371;52.272;9.746;2023-08-07T07:21:35;19.70;78.70
16517;DHT22;8371;52.272;9.746;2023-08-07T07:24:04;19.60;78.50
16517;DHT22;8371;52.272;9.746;2023-08-07T07:26:30;19.60;78.40
16517;DHT22;8371;52.272;9.746;2023-08-07T07:28:56;19.60;78.20
16517;DHT22;8371;52.272;9.746;2023-08-07T07:31:22;19.50;78.00
16517;DHT22;8371;52.272;9.746;2023-08-07T07:33:47;19.50;78.00
16517;DHT22;8371;52.272;9.746;2023-08-07T07:36:19;19.40;78.10
16517;DHT22;8371;52.272;9.746;2023-08-07T07:38:43;19.30;78.20
16517;DHT22;8371;52.272;9.746;2023-08-07T07:41:08;19.30;78.60
16517;DHT22;8371;52.272;9.746;2023-08-07T07:43:37;19.20;78.60
16517;DHT22;8371;52.272;9.746;2023-08-07T07:46:03;19.20;78.90
16517;DHT22;8371;52.272;9.746;2023-08-07T07:48:29;19.20;79.40
16517;DHT22;8371;52.272;9.746;2023-08-07T07:50:59;19.20;79.70
16517;DHT22;8371;52.272;9.746;2023-08-07T07:53:25;19.20;80.20
16517;DHT22;8371;52.272;9.746;2023-08-07T07:55:51;19.30;80.40
16517;DHT22;8371;52.272;9.746;2023-08-07T07:58:16;19.50;80.50
16517;DHT22;8371;52.272;9.746;2023-08-07T08:00:42;19.50;80.80
16517;DHT22;8371;52.272;9.746;2023-08-07T08:03:08;19.60;81.00
16517;DHT22;8371;52.272;9.746;2023-08-07T08:05:34;19.80;81.30
16517;DHT22;8371;52.272;9.746;2023-08-07T08:08:00;20.00;81.90
16517;DHT22;8371;52.272;9.746;2023-08-07T08:10:27;20.20;82.20
16517;DHT22;8371;52.272;9.746;2023-08-07T08:12:56;20.40;81.70
16517;DHT22;8371;52.272;9.746;2023-08-07T08:15:22;20.60;80.60
16517;DHT22;8371;52.272;9.746;2023-08-07T08:17:48;20.80;79.70
16517;DHT22;8371;52.272;9.746;2023-08-07T08:20:15;20.90;79.10
16517;DHT22;8371;52.272;9.746;2023-08-07T08:22:45;21.00;78.40
16517;DHT22;8371;52.272;9.746;2023-08-07T08:25:11;21.10;78.20
16517;DHT22;8371;52.272;9.746;2023-08-07T08:27:40;21.10;78.00
16517;DHT22;8371;52.272;9.746;2023-08-07T08:30:06;21.20;77.90
16517;DHT22;8371;52.272;9.746;2023-08-07T08:32:34;21.20;77.50
16517;DHT22;8371;52.272;9.746;2023-08-07T08:35:00;21.20;77.30
16517;DHT22;8371;52.272;9.746;2023-08-07T08:37:26;21.20;76.90
16517;DHT22;8371;52.272;9.746;2023-08-07T08:39:52;21.20;76.60
16517;DHT22;8371;52.272;9.746;2023-08-07T08:42:17;21.10;76.30
16517;DHT22;8371;52.272;9.746;2023-08-07T08:44:49;21.00;76.50
16517;DHT22;8371;52.272;9.746;2023-08-07T08:47:16;21.00;76.30
16517;DHT22;8371;52.272;9.746;2023-08-07T08:49:47;20.90;76.40
16517;DHT22;8371;52.272;9.746;2023-08-07T08:52:15;20.80;76.60
16517;DHT22;8371;52.272;9.746;2023-08-07T08:54:46;20.80;77.20
16517;DHT22;8371;52.272;9.746;2023-08-07T08:57:11;20.70;77.70
16517;DHT22;8371;52.272;9.746;2023-08-07T08:59:37;20.80;78.00
16517;DHT22;8371;52.272;9.746;2023-08-07T09:02:04;20.80;78.60
16517;DHT22;8371;52.272;9.746;2023-08-07T09:04:29;21.00;79.10
16517;DHT22;8371;52.272;9.746;2023-08-07T09:06:55;21.10;79.70
16517;DHT22;8371;52.272;9.746;2023-08-07T09:09:21;21.30;80.50
16517;DHT22;8371;52.272;9.746;2023-08-07T09:11:48;21.50;79.40
16517;DHT22;8371;52.272;9.746;2023-08-07T09:14:20;21.70;78.80
16517;DHT22;8371;52.272;9.746;2023-08-07T09:16:47;22.00;78.00
16517;DHT22;8371;52.272;9.746;2023-08-07T09:19:13;22.00;77.30
16517;DHT22;8371;52.272;9.746;2023-08-07T09:21:39;22.10;76.50
16517;DHT22;8371;52.272;9.746;2023-08-07T09:24:05;22.10;75.60
16517;DHT22;8371;52.272;9.746;2023-08-07T09:26:33;22.00;75.10
16517;DHT22;8371;52.272;9.746;2023-08-07T09:28:59;21.90;75.10
16517;DHT22;8371;52.272;9.746;2023-08-07T09:31:26;21.80;75.00
16517;DHT22;8371;52.272;9.746;2023-08-07T09:33:52;21.70;75.00
16517;DHT22;8371;52.272;9.746;2023-08-07T09:36:17;21.60;75.40
16517;DHT22;8371;52.272;9.746;2023-08-07T09:38:49;21.60;75.80
16517;DHT22;8371;52.272;9.746;2023-08-07T09:41:12;21.50;76.00
16517;DHT22;8371;52.272;9.746;2023-08-07T09:43:37;21.50;76.30
16517;DHT22;8371;52.272;9.746;2023-08-07T09:46:07;21.50;76.40
16517;DHT22;8371;52.272;9.746;2023-08-07T09:48:42;21.50;76.30
16517;DHT22;8371;52.272;9.746;2023-08-07T09:51:08;21.60;77.00
16517;DHT22;8371;52.272;9.746;2023-08-07T09:53:34;21.70;77.10
16517;DHT22;8371;52.272;9.746;2023-08-07T09:56:00;21.80;76.50
16517;DHT22;8371;52.272;9.746;2023-08-07T09:58:28;22.00;76.60
16517;DHT22;8371;52.272;9.746;2023-08-07T10:00:53;22.10;76.80
16517;DHT22;8371;52.272;9.746;2023-08-07T10:03:22;22.20;75.50
16517;DHT22;8371;52.272;9.746;2023-08-07T10:05:48;22.30;74.90
16517;DHT22;8371;52.272;9.746;2023-08-07T10:08:15;22.40;74.70
16517;DHT22;8371;52.272;9.746;2023-08-07T10:10:41;22.50;74.10
16517;DHT22;8371;52.272;9.746;2023-08-07T10:13:08;22.50;72.50
16517;DHT22;8371;52.272;9.746;2023-08-07T10:15:34;22.40;72.00
16517;DHT22;8371;52.272;9.746;2023-08-07T10:18:02;22.20;72.00
16517;DHT22;8371;52.272;9.746;2023-08-07T10:20:29;22.00;72.20
16517;DHT22;8371;52.272;9.746;2023-08-07T10:23:04;21.80;73.00
16517;DHT22;8371;52.272;9.746;2023-08-07T10:25:26;21.60;74.00
16517;DHT22;8371;52.272;9.746;2023-08-07T10:27:53;21.50;75.10
16517;DHT22;8371;52.272;9.746;2023-08-07T10:30:22;21.50;75.00
16517;DHT22;8371;52.272;9.746;2023-08-07T10:32:50;21.40;75.40
16517;DHT22;8371;52.272;9.746;2023-08-07T10:35:24;21.50;75.70
16517;DHT22;8371;52.272;9.746;2023-08-07T10:37:52;21.50;75.70
16517;DHT22;8371;52.272;9.746;2023-08-07T10:40:21;21.60;75.80
16517;DHT22;8371;52.272;9.746;2023-08-07T10:42:55;21.60;76.00
16517;DHT22;8371;52.272;9.746;2023-08-07T10:45:22;21.80;76.40
16517;DHT22;8371;52.272;9.746;2023-08-07T10:48:05;21.90;76.50
16517;DHT22;8371;52.272;9.746;2023-08-07T10:50:35;22.10;75.80
16517;DHT22;8371;52.272;9.746;2023-08-07T10:53:02;22.30;75.30
16517;DHT22;8371;52.272;9.746;2023-08-07T10:55:42;22.40;74.80
16517;DHT22;8371;52.272;9.746;2023-08-07T10:57:59;22.60;74.80
16517;DHT22;8371;52.272;9.746;2023-08-07T11:00:26;22.70;74.40
16517;DHT22;8371;52.272;9.746;2023-08-07T11:02:52;22.80;73.90
16517;DHT22;8371;52.272;9.746;2023-08-07T11:05:18;23.10;73.50
16517;DHT22;8371;52.272;9.746;2023-08-07T11:07:45;23.10;73.20
16517;DHT22;8371;52.272;9.746;2023-08-07T11:10:13;23.20;72.60
16517;DHT22;8371;52.272;9.746;2023-08-07T11:12:43;23.30;72.40
16517;DHT22;8371;52.272;9.746;2023-08-07T11:15:15;23.40;72.30
16517;DHT22;8371;52.272;9.746;2023-08-07T11:17:39;23.50;72.20
16517;DHT22;8371;52.272;9.746;2023-08-07T11:20:07;23.60;72.20
16517;DHT22;8371;52.272;9.746;2023-08-07T11:22:34;23.70;72.10
16517;DHT22;8371;52.272;9.746;2023-08-07T11:25:01;23.80;71.30
16517;DHT22;8371;52.272;9.746;2023-08-07T11:27:27;24.00;71.50
16517;DHT22;8371;52.272;9.746;2023-08-07T11:29:53;24.20;71.50
16517;DHT22;8371;52.272;9.746;2023-08-07T11:32:21;24.30;71.00
16517;DHT22;8371;52.272;9.746;2023-08-07T11:34:49;24.50;70.40
16517;DHT22;8371;52.272;9.746;2023-08-07T11:37:16;24.60;70.20
16517;DHT22;8371;52.272;9.746;2023-08-07T11:39:43;24.70;69.70
16517;DHT22;8371;52.272;9.746;2023-08-07T11:42:09;24.80;68.30
16517;DHT22;8371;52.272;9.746;2023-08-07T11:44:35;24.80;67.90
16517;DHT22;8371;52.272;9.746;2023-08-07T11:47:00;24.80;67.10
16517;DHT22;8371;52.272;9.746;2023-08-07T11:49:26;24.60;65.60
16517;DHT22;8371;52.272;9.746;2023-08-07T11:51:52;24.40;63.80
16517;DHT22;8371;52.272;9.746;2023-08-07T11:54:20;24.00;63.30
16517;DHT22;8371;52.272;9.746;2023-08-07T11:56:46;23.50;63.10
16517;DHT22;8371;52.272;9.746;2023-08-07T11:59:12;23.00;63.40
16517;DHT22;8371;52.272;9.746;2023-08-07T12:01:39;22.50;64.30
16517;DHT22;8371;52.272;9.746;2023-08-07T12:04:09;22.10;65.40
16517;DHT22;8371;52.272;9.746;2023-08-07T12:06:36;21.80;66.30
16517;DHT22;8371;52.272;9.746;2023-08-07T12:09:05;21.50;66.90
16517;DHT22;8371;52.272;9.746;2023-08-07T12:11:31;21.30;68.20
16517;DHT22;8371;52.272;9.746;2023-08-07T12:13:59;21.20;69.10
16517;DHT22;8371;52.272;9.746;2023-08-07T12:16:25;21.10;69.60
16517;DHT22;8371;52.272;9.746;2023-08-07T12:18:51;21.20;69.90
16517;DHT22;8371;52.272;9.746;2023-08-07T12:21:19;21.20;69.50
16517;DHT22;8371;52.272;9.746;2023-08-07T12:23:46;21.30;69.30
16517;DHT22;8371;52.272;9.746;2023-08-07T12:26:15;21.30;69.10
16517;DHT22;8371;52.272;9.746;2023-08-07T12:28:41;21.40;69.00
16517;DHT22;8371;52.272;9.746;2023-08-07T12:31:06;21.40;68.80
16517;DHT22;8371;52.272;9.746;2023-08-07T12:33:32;21.40;68.70
16517;DHT22;8371;52.272;9.746;2023-08-07T12:35:59;21.40;68.30
16517;DHT22;8371;52.272;9.746;2023-08-07T12:38:26;21.30;68.00
16517;DHT22;8371;52.272;9.746;2023-08-07T12:40:52;21.20;68.10
16517;DHT22;8371;52.272;9.746;2023-08-07T12:43:18;21.00;68.40
16517;DHT22;8371;52.272;9.746;2023-08-07T12:45:43;20.80;68.80
16517;DHT22;8371;52.272;9.746;2023-08-07T12:48:09;20.60;69.20
16517;DHT22;8371;52.272;9.746;2023-08-07T12:50:35;20.40;69.60
16517;DHT22;8371;52.272;9.746;2023-08-07T12:53:01;20.30;69.50
16517;DHT22;8371;52.272;9.746;2023-08-07T12:55:27;20.20;70.20
16517;DHT22;8371;52.272;9.746;2023-08-07T12:57:54;20.20;71.40
16517;DHT22;8371;52.272;9.746;2023-08-07T13:00:20;20.30;72.00
16517;DHT22;8371;52.272;9.746;2023-08-07T13:02:48;20.40;72.30
16517;DHT22;8371;52.272;9.746;2023-08-07T13:05:15;20.50;72.60
16517;DHT22;8371;52.272;9.746;2023-08-07T13:07:42;20.60;72.80
16517;DHT22;8371;52.272;9.746;2023-08-07T13:10:11;20.90;72.50
16517;DHT22;8371;52.272;9.746;2023-08-07T13:12:39;21.10;72.50
16517;DHT22;8371;52.272;9.746;2023-08-07T13:15:06;21.40;71.50
16517;DHT22;8371;52.272;9.746;2023-08-07T13:17:34;21.50;70.90
16517;DHT22;8371;52.272;9.746;2023-08-07T13:20:01;21.70;70.30
16517;DHT22;8371;52.272;9.746;2023-08-07T13:22:28;21.90;70.50
16517;DHT22;8371;52.272;9.746;2023-08-07T13:24:54;22.20;70.40
16517;DHT22;8371;52.272;9.746;2023-08-07T13:27:20;22.30;70.00
16517;DHT22;8371;52.272;9.746;2023-08-07T13:29:47;22.50;69.20
16517;DHT22;8371;52.272;9.746;2023-08-07T13:32:12;22.70;68.40
16517;DHT22;8371;52.272;9.746;2023-08-07T13:34:38;22.90;66.60
16517;DHT22;8371;52.272;9.746;2023-08-07T13:37:05;23.00;67.00
16517;DHT22;8371;52.272;9.746;2023-08-07T13:39:31;23.00;66.90
16517;DHT22;8371;52.272;9.746;2023-08-07T13:41:57;23.00;67.40
16517;DHT22;8371;52.272;9.746;2023-08-07T13:44:23;23.10;66.80
16517;DHT22;8371;52.272;9.746;2023-08-07T13:46:49;23.10;66.70
16517;DHT22;8371;52.272;9.746;2023-08-07T13:49:14;23.20;66.50
16517;DHT22;8371;52.272;9.746;2023-08-07T13:51:41;23.20;66.00
16517;DHT22;8371;52.272;9.746;2023-08-07T13:54:07;23.20;65.10
16517;DHT22;8371;52.272;9.746;2023-08-07T13:56:33;23.20;64.10
16517;DHT22;8371;52.272;9.746;2023-08-07T13:58:59;23.10;63.70
16517;DHT22;8371;52.272;9.746;2023-08-07T14:01:25;23.00;64.10
16517;DHT22;8371;52.272;9.746;2023-08-07T14:03:51;23.00;64.20
16517;DHT22;8371;52.272;9.746;2023-08-07T14:06:17;22.90;64.60
16517;DHT22;8371;52.272;9.746;2023-08-07T14:08:43;22.90;64.70
16517;DHT22;8371;52.272;9.746;2023-08-07T14:11:08;23.00;65.00
16517;DHT22;8371;52.272;9.746;2023-08-07T14:13:34;23.00;65.10
16517;DHT22;8371;52.272;9.746;2023-08-07T14:16:00;23.00;64.70
16517;DHT22;8371;52.272;9.746;2023-08-07T14:18:25;23.10;64.30
16517;DHT22;8371;52.272;9.746;2023-08-07T14:20:52;23.10;62.30
16517;DHT22;8371;52.272;9.746;2023-08-07T14:23:18;23.20;62.20
16517;DHT22;8371;52.272;9.746;2023-08-07T14:25:44;23.10;60.80
16517;DHT22;8371;52.272;9.746;2023-08-07T14:28:10;23.10;61.40
16517;DHT22;8371;52.272;9.746;2023-08-07T14:30:36;23.10;62.00
16517;DHT22;8371;52.272;9.746;2023-08-07T14:33:02;23.10;62.40
16517;DHT22;8371;52.272;9.746;2023-08-07T14:35:27;23.20;62.30
16517;DHT22;8371;52.272;9.746;2023-08-07T14:37:53;23.20;62.50
16517;DHT22;8371;52.272;9.746;2023-08-07T14:40:19;23.30;61.60
16517;DHT22;8371;52.272;9.746;2023-08-07T14:42:44;23.40;61.80
16517;DHT22;8371;52.272;9.746;2023-08-07T14:45:10;23.50;61.20
16517;DHT22;8371;52.272;9.746;2023-08-07T14:47:36;23.50;59.90
16517;DHT22;8371;52.272;9.746;2023-08-07T14:50:02;23.60;59.60
16517;DHT22;8371;52.272;9.746;2023-08-07T14:52:28;23.60;60.20
16517;DHT22;8371;52.272;9.746;2023-08-07T14:54:54;23.70;60.10
16517;DHT22;8371;52.272;9.746;2023-08-07T14:57:21;23.70;59.60
16517;DHT22;8371;52.272;9.746;2023-08-07T14:59:47;23.70;59.00
16517;DHT22;8371;52.272;9.746;2023-08-07T15:02:13;23.70;59.30
16517;DHT22;8371;52.272;9.746;2023-08-07T15:04:38;23.60;58.80
16517;DHT22;8371;52.272;9.746;2023-08-07T15:07:05;23.60;59.30
16517;DHT22;8371;52.272;9.746;2023-08-07T15:09:30;23.60;58.60
16517;DHT22;8371;52.272;9.746;2023-08-07T15:11:56;23.60;58.50
16517;DHT22;8371;52.272;9.746;2023-08-07T15:14:22;23.60;58.20
16517;DHT22;8371;52.272;9.746;2023-08-07T15:16:47;23.50;57.60
16517;DHT22;8371;52.272;9.746;2023-08-07T15:19:13;23.50;58.30
16517;DHT22;8371;52.272;9.746;2023-08-07T15:21:39;23.50;58.10
16517;DHT22;8371;52.272;9.746;2023-08-07T15:24:05;23.40;58.30
16517;DHT22;8371;52.272;9.746;2023-08-07T15:26:31;23.40;58.10
16517;DHT22;8371;52.272;9.746;2023-08-07T15:28:56;23.40;57.30
16517;DHT22;8371;52.272;9.746;2023-08-07T15:31:22;23.40;56.80
16517;DHT22;8371;52.272;9.746;2023-08-07T15:33:48;23.30;57.50
16517;DHT22;8371;52.272;9.746;2023-08-07T15:36:15;23.20;56.90
16517;DHT22;8371;52.272;9.746;2023-08-07T15:38:41;23.10;57.30
16517;DHT22;8371;52.272;9.746;2023-08-07T15:41:08;23.00;57.20